createdAt,value
2022-08-12T00:00:47.464Z,5.20
2022-08-12T00:03:32.622Z,5.97
2022-08-12T00:06:17.681Z,4.40
2022-08-12T00:09:02.913Z,5.23
2022-08-12T00:11:47.618Z,5.50
2022-08-12T00:14:32.727Z,5.20
2022-08-12T00:17:17.799Z,5.77
2022-08-12T00:20:02.962Z,5.60
2022-08-12T00:22:53.055Z,6.70
2022-08-12T00:26:21.322Z,5.67
2022-08-12T00:29:04.913Z,7.33
2022-08-12T00:31:49.921Z,5.50
2022-08-12T00:34:35.129Z,4.90
2022-08-12T00:37:20.739Z,5.27
2022-08-12T00:40:11.417Z,5.73
2022-08-12T00:42:40.896Z,5.20
2022-08-12T00:45:08.485Z,4.70
2022-08-12T00:47:35.678Z,5.00
2022-08-12T00:50:03.259Z,4.87
2022-08-12T00:52:30.071Z,5.37
2022-08-12T00:54:59.305Z,4.80
2022-08-12T00:57:32.286Z,4.80
2022-08-12T01:00:12.127Z,5.10
2022-08-12T01:02:42.375Z,5.23
2022-08-12T01:05:36.407Z,5.10
2022-08-12T01:08:23.438Z,4.80
2022-08-12T01:11:09.062Z,5.97
2022-08-12T01:13:40.070Z,4.93
2022-08-12T01:16:08.068Z,4.90
2022-08-12T01:18:39.703Z,5.30
2022-08-12T01:21:09.334Z,5.40
2022-08-12T01:23:36.265Z,5.70
2022-08-12T01:26:04.606Z,4.90
2022-08-12T01:28:32.183Z,5.50
2022-08-12T01:31:01.736Z,5.10
2022-08-12T01:33:34.019Z,5.80
2022-08-12T01:36:08.550Z,6.20
2022-08-12T01:38:36.678Z,5.63
2022-08-12T01:41:04.774Z,5.20
2022-08-12T01:43:32.281Z,5.80
2022-08-12T01:46:22.565Z,5.30
2022-08-12T01:49:09.571Z,5.77
2022-08-12T01:52:20.828Z,5.57
2022-08-12T01:54:38.495Z,6.37
2022-08-12T01:57:15.952Z,5.27
2022-08-12T02:00:07.256Z,5.30
2022-08-12T02:02:40.666Z,5.73
2022-08-12T02:05:49.915Z,5.40
2022-08-12T02:08:44.475Z,5.90
2022-08-12T02:11:35.628Z,6.30
2022-08-12T02:14:25.191Z,5.23
2022-08-12T02:17:00.835Z,5.97
2022-08-12T02:19:34.534Z,6.50
2022-08-12T02:22:44.126Z,6.37
2022-08-12T02:25:19.442Z,5.93
2022-08-12T02:27:48.358Z,6.27
2022-08-12T02:30:19.342Z,5.90
2022-08-12T02:32:49.421Z,6.17
2022-08-12T02:35:19.717Z,6.20
2022-08-12T02:37:48.472Z,6.33
2022-08-12T02:40:15.858Z,7.00
2022-08-12T02:42:53.877Z,6.73
2022-08-12T02:45:39.173Z,6.10
2022-08-12T02:48:11.112Z,6.80
2022-08-12T02:50:42.403Z,6.90
2022-08-12T02:53:09.301Z,7.20
2022-08-12T02:55:38.704Z,6.10
2022-08-12T02:58:12.429Z,6.63
2022-08-12T03:00:42.656Z,7.10
2022-08-12T03:03:11.821Z,6.30
2022-08-12T03:05:45.382Z,6.30
2022-08-12T03:08:14.326Z,6.70
2022-08-12T03:11:03.922Z,6.70
2022-08-12T03:13:33.270Z,7.87
2022-08-12T03:15:59.871Z,7.47
2022-08-12T03:18:31.630Z,7.00
2022-08-12T03:20:59.876Z,8.27
2022-08-12T03:23:30.814Z,7.40
2022-08-12T03:26:02.528Z,7.20
2022-08-12T03:28:54.208Z,7.07
2022-08-12T03:31:35.074Z,7.03
2022-08-12T03:34:07.548Z,7.40
2022-08-12T03:36:36.233Z,7.70
2022-08-12T03:39:18.444Z,7.60
2022-08-12T03:41:52.134Z,6.40
2022-08-12T03:44:52.514Z,7.27
2022-08-12T03:47:53.048Z,7.57
2022-08-12T03:50:39.833Z,8.40
2022-08-12T03:53:28.846Z,7.57
2022-08-12T03:56:14.498Z,8.00
2022-08-12T03:59:00.103Z,8.23
2022-08-12T04:01:27.434Z,7.87
2022-08-12T04:03:54.742Z,9.07
2022-08-12T04:06:35.019Z,8.27
2022-08-12T04:09:05.288Z,12.27
2022-08-12T04:12:01.837Z,10.67
2022-08-12T04:14:28.551Z,8.90
2022-08-12T04:16:57.056Z,10.20
2022-08-12T04:19:25.071Z,8.77
2022-08-12T04:22:01.708Z,8.97
2022-08-12T04:24:35.431Z,9.77
2022-08-12T04:27:08.376Z,8.20
2022-08-12T04:30:30.376Z,9.43
2022-08-12T04:32:22.233Z,8.50
2022-08-12T04:34:49.565Z,9.03
2022-08-12T04:37:16.600Z,8.97
2022-08-12T04:39:44.517Z,8.77
2022-08-12T04:42:11.506Z,8.13
2022-08-12T04:44:37.990Z,8.20
2022-08-12T04:47:04.803Z,9.83
2022-08-12T04:49:32.206Z,9.07
2022-08-12T04:51:59.749Z,8.83
2022-08-12T04:54:27.579Z,8.83
2022-08-12T04:57:04.259Z,10.87
2022-08-12T04:59:47.562Z,9.43
2022-08-12T05:02:21.018Z,11.70
2022-08-12T05:04:56.104Z,16.10
2022-08-12T05:07:27.823Z,9.80
2022-08-12T05:10:00.312Z,9.97
2022-08-12T05:12:38.726Z,9.17
2022-08-12T05:15:19.484Z,9.00
2022-08-12T05:17:53.562Z,8.27
2022-08-12T05:20:22.405Z,7.73
2022-08-12T05:22:49.996Z,9.23
2022-08-12T05:25:20.228Z,8.80
2022-08-12T05:27:58.001Z,8.03
2022-08-12T05:30:25.510Z,8.37
2022-08-12T05:32:53.855Z,8.70
2022-08-12T05:35:21.731Z,8.67
2022-08-12T05:37:49.475Z,8.93
2022-08-12T05:40:16.252Z,8.63
2022-08-12T05:42:43.062Z,9.63
2022-08-12T05:45:10.239Z,8.70
2022-08-12T05:47:53.153Z,10.67
2022-08-12T05:50:20.980Z,9.43
2022-08-12T05:52:48.454Z,9.47
2022-08-12T05:55:15.159Z,9.33
2022-08-12T05:57:41.843Z,8.50
2022-08-12T06:00:08.770Z,9.97
2022-08-12T06:02:35.713Z,11.80
2022-08-12T06:05:02.618Z,9.73
2022-08-12T06:07:37.377Z,10.10
2022-08-12T06:10:17.583Z,14.60
2022-08-12T06:12:58.832Z,9.80
2022-08-12T06:15:25.566Z,10.83
2022-08-12T06:17:52.330Z,11.17
2022-08-12T06:20:26.160Z,9.13
2022-08-12T06:22:56.247Z,7.90
2022-08-12T06:25:22.875Z,9.60
2022-08-12T06:28:07.234Z,7.63
2022-08-12T06:30:38.649Z,8.27
2022-08-12T06:33:24.781Z,8.50
2022-08-12T06:35:55.756Z,8.23
2022-08-12T06:38:25.477Z,8.30
2022-08-12T06:41:13.451Z,7.93
2022-08-12T06:44:06.722Z,7.77
2022-08-12T06:46:29.885Z,8.03
2022-08-12T06:48:58.769Z,9.10
2022-08-12T06:51:27.832Z,7.80
2022-08-12T06:53:55.798Z,7.87
2022-08-12T06:56:39.772Z,9.20
2022-08-12T06:59:11.199Z,7.87
2022-08-12T07:01:38.451Z,8.53
2022-08-12T07:04:26.393Z,8.03
2022-08-12T07:06:51.591Z,6.83
2022-08-12T07:10:03.957Z,6.83
2022-08-12T07:12:04.859Z,6.57
2022-08-12T07:14:31.540Z,6.50
2022-08-12T07:17:02.195Z,6.40
2022-08-12T07:19:45.239Z,6.77
2022-08-12T07:22:14.064Z,6.23
2022-08-12T07:24:40.887Z,6.20
2022-08-12T07:27:07.424Z,5.77
2022-08-12T07:30:03.810Z,5.90
2022-08-12T07:32:24.404Z,6.13
2022-08-12T07:34:51.063Z,6.67
2022-08-12T07:37:17.855Z,6.60
2022-08-12T07:39:50.719Z,6.57
2022-08-12T07:42:27.022Z,5.63
2022-08-12T07:44:53.710Z,5.57
2022-08-12T07:47:20.267Z,5.50
2022-08-12T07:50:04.147Z,6.00
2022-08-12T07:52:38.244Z,5.77
2022-08-12T07:55:05.907Z,5.97
2022-08-12T07:57:32.836Z,5.90
2022-08-12T08:00:05.541Z,5.30
2022-08-12T08:02:37.099Z,5.97
2022-08-12T08:05:04.854Z,6.13
2022-08-12T08:07:31.598Z,5.77
2022-08-12T08:10:00.619Z,5.87
2022-08-12T08:12:46.894Z,4.80
2022-08-12T08:15:15.171Z,5.37
2022-08-12T08:17:59.545Z,6.07
2022-08-12T08:20:28.783Z,4.83
2022-08-12T08:23:00.041Z,5.30
2022-08-12T08:25:38.670Z,4.63
2022-08-12T08:28:10.754Z,4.50
2022-08-12T08:30:45.583Z,4.83
2022-08-12T08:33:24.669Z,4.40
2022-08-12T08:36:02.230Z,4.20
2022-08-12T08:38:33.136Z,4.33
2022-08-12T08:42:15.272Z,4.17
2022-08-12T08:44:11.143Z,3.77
2022-08-12T08:46:39.134Z,3.27
2022-08-12T08:49:06.067Z,3.97
2022-08-12T08:51:33.126Z,3.90
2022-08-12T08:53:59.759Z,3.47
2022-08-12T08:56:29.619Z,3.40
2022-08-12T08:58:57.571Z,3.40
2022-08-12T09:01:24.337Z,3.73
2022-08-12T09:05:11.192Z,3.73
2022-08-12T09:06:41.920Z,3.40
2022-08-12T09:09:12.999Z,2.30
2022-08-12T09:12:10.651Z,3.20
2022-08-12T09:17:42.923Z,2.50
2022-08-12T09:20:15.884Z,2.70
2022-08-12T09:22:42.974Z,2.57
2022-08-12T09:25:25.790Z,2.30
2022-08-12T09:28:03.941Z,3.10
2022-08-12T09:30:41.322Z,2.70
2022-08-12T09:33:18.874Z,3.73
2022-08-12T09:35:46.953Z,3.77
2022-08-12T09:38:32.078Z,2.50
2022-08-12T09:42:09.453Z,3.37
2022-08-12T09:44:05.523Z,4.87
2022-08-12T09:46:34.659Z,3.47
2022-08-12T09:49:04.214Z,3.00
2022-08-12T09:51:44.505Z,3.33
2022-08-12T09:54:33.489Z,3.40
2022-08-12T09:58:08.000Z,3.22
2022-08-12T10:00:12.819Z,3.80
2022-08-12T10:02:49.540Z,3.45
2022-08-12T10:05:17.864Z,4.20
2022-08-12T10:07:47.257Z,4.32
2022-08-12T10:10:23.877Z,4.28
2022-08-12T10:13:14.043Z,4.07
2022-08-12T10:16:02.951Z,3.97
2022-08-12T10:18:51.674Z,4.35
2022-08-12T10:21:23.163Z,3.42
2022-08-12T10:23:51.802Z,3.67
2022-08-12T10:26:42.499Z,3.90
2022-08-12T10:30:38.840Z,3.97
2022-08-12T10:32:42.964Z,4.00
2022-08-12T10:35:10.565Z,4.47
2022-08-12T10:38:33.695Z,3.20
2022-08-12T10:40:31.368Z,3.30
2022-08-12T10:43:17.958Z,3.30
2022-08-12T10:45:48.856Z,3.73
2022-08-12T10:48:21.343Z,3.47
2022-08-12T10:51:02.480Z,3.20
2022-08-12T10:53:44.874Z,3.63
2022-08-12T10:56:17.697Z,4.77
2022-08-12T10:58:46.769Z,2.60
2022-08-12T11:01:50.441Z,2.80
2022-08-12T11:04:22.496Z,3.13
2022-08-12T11:07:05.821Z,3.27
2022-08-12T11:09:41.660Z,3.20
2022-08-12T11:12:54.891Z,2.80
2022-08-12T11:15:19.504Z,3.47
2022-08-12T11:17:54.093Z,3.10
2022-08-12T11:20:30.791Z,3.63
2022-08-12T11:22:59.897Z,3.42
2022-08-12T11:25:56.020Z,2.95
2022-08-12T11:28:34.898Z,3.13
2022-08-12T11:31:05.215Z,3.10
2022-08-12T11:34:05.620Z,3.23
2022-08-12T11:36:22.019Z,3.30
2022-08-12T11:38:50.500Z,3.27
2022-08-12T11:41:30.871Z,3.00
2022-08-12T11:44:04.325Z,3.15
2022-08-12T11:46:47.120Z,3.17
2022-08-12T11:49:20.469Z,3.03
2022-08-12T11:51:57.967Z,3.40
2022-08-12T11:54:24.550Z,3.07
2022-08-12T11:56:52.386Z,3.00
2022-08-12T12:02:16.387Z,3.20
2022-08-12T12:04:45.524Z,2.90
2022-08-12T12:07:19.139Z,2.70
2022-08-12T12:09:52.421Z,3.07
2022-08-12T12:12:25.035Z,2.60
2022-08-12T12:14:54.587Z,2.93
2022-08-12T12:17:23.977Z,2.87
2022-08-12T12:19:51.221Z,2.67
2022-08-12T12:22:23.422Z,2.87
2022-08-12T12:24:54.210Z,2.90
2022-08-12T12:27:20.894Z,2.70
2022-08-12T12:30:18.138Z,2.60
2022-08-12T12:32:54.406Z,2.60
2022-08-12T12:36:20.011Z,2.33
2022-08-12T12:38:12.497Z,2.60
2022-08-12T12:40:43.841Z,2.90
2022-08-12T12:43:12.011Z,2.50
2022-08-12T12:45:44.522Z,2.37
2022-08-12T12:48:15.036Z,2.90
2022-08-12T12:50:51.259Z,2.47
2022-08-12T12:54:06.783Z,2.30
2022-08-12T12:56:15.471Z,3.00
2022-08-12T12:58:43.563Z,2.70
2022-08-12T13:01:25.618Z,2.70
2022-08-12T13:04:02.313Z,2.50
2022-08-12T13:06:30.852Z,2.27
2022-08-12T13:09:02.721Z,2.73
2022-08-12T13:11:39.046Z,3.10
2022-08-12T13:14:13.006Z,2.70
2022-08-12T13:16:54.292Z,3.03
2022-08-12T13:19:25.398Z,2.90
2022-08-12T13:22:21.654Z,2.60
2022-08-12T13:24:55.933Z,2.50
2022-08-12T13:27:35.411Z,2.53
2022-08-12T13:30:12.026Z,2.60
2022-08-12T13:32:57.674Z,2.87
2022-08-12T13:36:04.907Z,3.60
2022-08-12T13:38:35.542Z,2.77
2022-08-12T13:41:03.330Z,2.37
2022-08-12T13:43:40.223Z,2.87
2022-08-12T13:46:12.432Z,2.00
2022-08-12T13:48:45.016Z,2.57
2022-08-12T13:51:12.370Z,2.57
2022-08-12T13:53:59.314Z,2.80
2022-08-12T13:56:29.887Z,2.43
2022-08-12T13:59:02.895Z,2.37
2022-08-12T14:01:30.897Z,2.33
2022-08-12T14:03:59.903Z,2.13
2022-08-12T14:06:30.468Z,2.93
2022-08-12T14:08:58.781Z,2.90
2022-08-12T14:11:27.933Z,2.40
2022-08-12T14:14:05.766Z,2.37
2022-08-12T14:16:49.057Z,2.33
2022-08-12T14:19:22.791Z,2.03
2022-08-12T14:22:00.450Z,2.30
2022-08-12T14:24:40.650Z,2.70
2022-08-12T14:27:10.381Z,2.50
2022-08-12T14:30:05.739Z,2.20
2022-08-12T14:32:28.715Z,2.60
2022-08-12T14:34:56.710Z,2.87
2022-08-12T14:37:55.340Z,2.13
2022-08-12T14:40:11.777Z,2.17
2022-08-12T14:42:46.954Z,2.40
2022-08-12T14:45:14.270Z,2.10
2022-08-12T14:47:53.526Z,2.90
2022-08-12T14:50:37.455Z,2.40
2022-08-12T14:55:19.561Z,3.20
2022-08-12T14:59:20.170Z,2.27
2022-08-12T15:01:47.595Z,2.83
2022-08-12T15:04:15.117Z,2.33
2022-08-12T15:06:51.964Z,2.43
2022-08-12T15:09:19.371Z,2.53
2022-08-12T15:12:03.435Z,2.77
2022-08-12T15:14:31.705Z,2.67
2022-08-12T15:17:00.564Z,2.80
2022-08-12T15:20:28.248Z,2.53
2022-08-12T15:22:37.136Z,2.20
2022-08-12T15:25:07.229Z,2.20
2022-08-12T15:28:20.298Z,2.60
2022-08-12T15:30:30.806Z,2.50
2022-08-12T15:32:57.808Z,2.30
2022-08-12T15:35:27.506Z,2.30
2022-08-12T15:38:18.768Z,2.63
2022-08-12T15:40:51.212Z,2.53
2022-08-12T15:43:51.149Z,2.33
2022-08-12T15:46:06.380Z,3.03
2022-08-12T15:48:33.408Z,3.03
2022-08-12T15:51:01.949Z,2.50
2022-08-12T15:54:05.444Z,2.33
2022-08-12T15:56:54.750Z,2.60
2022-08-12T15:59:32.628Z,2.90
2022-08-12T16:02:08.602Z,2.70
2022-08-12T16:04:36.318Z,2.57
2022-08-12T16:07:09.295Z,2.47
2022-08-12T16:09:56.176Z,2.67
2022-08-12T16:12:23.167Z,2.77
2022-08-12T16:14:54.960Z,2.77
2022-08-12T16:17:25.993Z,2.93
2022-08-12T16:20:11.586Z,2.50
2022-08-12T16:22:38.938Z,2.60
2022-08-12T16:25:10.000Z,2.77
2022-08-12T16:27:38.402Z,2.80
2022-08-12T16:30:05.937Z,2.77
2022-08-12T16:32:35.986Z,2.90
2022-08-12T16:35:08.274Z,2.67
2022-08-12T16:38:24.335Z,2.60
2022-08-12T16:40:34.017Z,3.20
2022-08-12T16:43:04.694Z,2.47
2022-08-12T16:46:07.955Z,2.97
2022-08-12T16:48:35.427Z,2.80
2022-08-12T16:51:12.584Z,3.30
2022-08-12T16:53:43.791Z,2.80
2022-08-12T16:56:15.634Z,3.13
2022-08-12T16:58:43.734Z,2.60
2022-08-12T17:01:14.435Z,2.70
2022-08-12T17:03:46.991Z,2.53
2022-08-12T17:06:22.699Z,2.60
2022-08-12T17:09:02.660Z,2.47
2022-08-12T17:11:32.712Z,2.70
2022-08-12T17:13:59.763Z,2.43
2022-08-12T17:16:30.256Z,3.00
2022-08-12T17:18:59.752Z,2.73
2022-08-12T17:21:40.938Z,5.70
2022-08-12T17:24:21.530Z,4.80
2022-08-12T17:26:49.502Z,3.93
2022-08-12T17:29:24.263Z,2.80
2022-08-12T17:32:08.591Z,2.70
2022-08-12T17:34:55.377Z,2.87
2022-08-12T17:37:22.127Z,2.20
2022-08-12T17:40:15.209Z,2.23
2022-08-12T17:42:35.726Z,2.50
2022-08-12T17:45:18.148Z,2.70
2022-08-12T17:48:01.132Z,2.47
2022-08-12T17:50:35.890Z,2.50
2022-08-12T17:53:03.948Z,2.30
2022-08-12T17:55:44.763Z,2.30
2022-08-12T17:58:15.961Z,2.50
2022-08-12T18:00:47.972Z,2.63
2022-08-12T18:04:04.866Z,2.73
2022-08-12T18:06:14.281Z,3.47
2022-08-12T18:08:53.776Z,2.63
2022-08-12T18:12:04.781Z,2.30
2022-08-12T18:14:28.822Z,2.23
2022-08-12T18:16:57.689Z,3.30
2022-08-12T18:19:48.603Z,2.20
2022-08-12T18:22:22.259Z,2.33
2022-08-12T18:25:04.846Z,1.67
2022-08-12T18:27:44.596Z,4.57
2022-08-12T18:30:20.982Z,3.37
2022-08-12T18:33:05.183Z,2.90
2022-08-12T18:35:47.519Z,2.60
2022-08-12T18:38:24.440Z,5.60
2022-08-12T18:41:11.496Z,3.10
2022-08-12T18:44:05.232Z,2.53
2022-08-12T18:46:46.661Z,2.20
2022-08-12T18:49:19.336Z,2.30
2022-08-12T18:51:55.605Z,2.23
2022-08-12T18:54:49.322Z,2.00
2022-08-12T18:57:46.037Z,2.40
2022-08-12T19:00:18.647Z,1.77
2022-08-12T19:02:51.011Z,1.80
2022-08-12T19:05:17.891Z,2.40
2022-08-12T19:08:00.905Z,1.97
2022-08-12T19:10:34.110Z,2.43
2022-08-12T19:13:24.086Z,2.10
2022-08-12T19:15:58.256Z,2.10
2022-08-12T19:18:29.566Z,2.37
2022-08-12T19:20:57.563Z,1.90
2022-08-12T19:23:34.850Z,1.83
2022-08-12T19:26:03.122Z,1.80
2022-08-12T19:28:36.352Z,2.17
2022-08-12T19:31:55.603Z,2.30
2022-08-12T19:35:00.356Z,2.60
2022-08-12T19:37:27.802Z,2.00
2022-08-12T19:40:31.175Z,6.17
2022-08-12T19:43:02.253Z,4.80
2022-08-12T19:45:50.430Z,2.50
2022-08-12T19:48:19.178Z,2.23
2022-08-12T19:50:50.497Z,2.10
2022-08-12T19:53:20.685Z,2.33
2022-08-12T19:55:52.532Z,1.60
2022-08-12T19:58:22.543Z,2.23
2022-08-12T20:00:53.353Z,2.70
2022-08-12T20:03:38.818Z,2.50
2022-08-12T20:06:11.298Z,2.30
2022-08-12T20:08:48.662Z,2.17
2022-08-12T20:12:12.351Z,2.20
2022-08-12T20:14:09.955Z,1.87
2022-08-12T20:19:52.801Z,1.80
2022-08-12T20:22:24.777Z,1.67
2022-08-12T20:25:01.234Z,2.60
2022-08-12T20:28:04.194Z,2.40
2022-08-12T20:30:18.029Z,1.97
2022-08-12T20:32:59.198Z,4.20
2022-08-12T20:36:06.080Z,2.60
2022-08-12T20:38:26.507Z,1.80
2022-08-12T20:40:55.681Z,1.77
2022-08-12T20:43:24.118Z,2.30
2022-08-12T20:45:58.005Z,1.93
2022-08-12T20:48:25.501Z,1.73
2022-08-12T20:50:55.744Z,2.20
2022-08-12T20:53:27.716Z,2.17
2022-08-12T20:56:31.206Z,2.10
2022-08-12T20:58:59.960Z,1.50
2022-08-12T21:01:29.090Z,1.80
2022-08-12T21:04:32.037Z,1.87
2022-08-12T21:07:08.176Z,1.73
2022-08-12T21:09:47.798Z,1.50
2022-08-12T21:12:28.071Z,1.80
2022-08-12T21:15:16.652Z,1.70
2022-08-12T21:18:11.821Z,1.83
2022-08-12T21:20:50.645Z,2.17
2022-08-12T21:23:19.075Z,1.83
2022-08-12T21:25:46.436Z,2.00
2022-08-12T21:28:14.344Z,1.97
2022-08-12T21:31:10.686Z,1.80
2022-08-12T21:33:58.640Z,1.67
2022-08-12T21:36:32.277Z,1.87
2022-08-12T21:39:18.846Z,1.90
2022-08-12T21:41:52.013Z,1.60
2022-08-12T21:44:32.456Z,1.73
2022-08-12T21:47:21.652Z,2.03
2022-08-12T21:50:02.935Z,2.07
2022-08-12T21:52:35.848Z,2.30
2022-08-12T21:55:18.196Z,1.67
2022-08-12T21:57:53.521Z,2.40
2022-08-12T22:00:33.205Z,2.00
2022-08-12T22:04:10.797Z,2.00
2022-08-12T22:06:31.065Z,2.50
2022-08-12T22:09:16.198Z,1.80
2022-08-12T22:11:49.082Z,2.00
2022-08-12T22:14:24.191Z,2.37
2022-08-12T22:16:52.130Z,2.10
2022-08-12T22:19:19.860Z,2.20
2022-08-12T22:21:53.779Z,2.10
2022-08-12T22:24:26.446Z,2.37
2022-08-12T22:26:58.551Z,2.30
2022-08-12T22:29:43.742Z,2.20
2022-08-12T22:32:12.085Z,2.00
2022-08-12T22:34:39.619Z,1.80
2022-08-12T22:37:11.410Z,1.87
2022-08-12T22:39:46.798Z,1.97
2022-08-12T22:42:34.312Z,1.93
2022-08-12T22:45:23.310Z,2.20
2022-08-12T22:47:55.355Z,2.40
2022-08-12T22:50:28.924Z,1.80
2022-08-12T22:53:15.522Z,1.90
2022-08-12T22:56:00.080Z,2.00
2022-08-12T22:58:40.699Z,1.90
2022-08-12T23:01:10.574Z,1.80
2022-08-12T23:03:49.435Z,2.03
2022-08-12T23:06:23.678Z,1.97
2022-08-12T23:08:51.459Z,2.10
2022-08-12T23:11:23.543Z,1.80
2022-08-12T23:13:56.863Z,1.70
2022-08-12T23:16:31.140Z,1.70
2022-08-12T23:19:10.274Z,1.90
2022-08-12T23:22:06.513Z,1.90
2022-08-12T23:24:53.748Z,2.10
2022-08-12T23:27:50.336Z,1.80
2022-08-12T23:30:24.709Z,2.23
2022-08-12T23:33:00.184Z,3.20
2022-08-12T23:35:45.655Z,2.87
2022-08-12T23:38:30.825Z,2.30
2022-08-12T23:41:03.338Z,1.97
2022-08-12T23:43:39.350Z,1.87
2022-08-12T23:46:08.967Z,2.00
2022-08-12T23:48:37.436Z,1.70
2022-08-12T23:51:21.684Z,1.83
2022-08-12T23:54:02.964Z,2.07
2022-08-12T23:56:32.879Z,2.87
2022-08-12T23:59:07.513Z,2.40
